Flight Track Log - Related Links

Times and Time Zones

All times are in EDT time to prevent confusion due to time zone crossing. See the BHS415 flight status page for this flight to view local times or setup timezone preferences in your user account.


Time Position Orientation Groundspeed Altitude Reporting Facility
EDT Latitude Longitude Course Direction KTS MPH feet Rate Location/Type
Sun 12:33:12 PM 21.7694 -72.2142 309° West 245 282 2,300  Level Miami Center
Sun 12:34:12 PM 21.7642 -72.1786 99° East 189 217 3,700 1,350 Climbing Miami Center
Sun 12:35:12 PM 21.7631 -72.1406 92° East 145 167 5,000 1,250 Climbing Miami Center
Sun 12:36:00 PM 21.9880 -72.5957 302° West  Level FlightAware Approximate
Sun 12:36:12 PM 21.7811 -72.1153 52° Northeast 96 110 6,200  Level Miami Center
Sun 12:37:00 PM 22.0155 -72.6540 309° West  Level FlightAware Approximate
Sun 12:37:12 PM 21.8136 -72.1589 309° West 90 104 7,300  Level Miami Center
Sun 12:38:00 PM 22.0551 -72.7068 309° West  Level FlightAware Approximate
Sun 12:38:12 PM 21.8425 -72.2117 301° West 164 189 8,400  Level Miami Center
Sun 12:39:12 PM 21.8733 -72.2664 301° West 186 214 9,500 1,050 Climbing Miami Center
Sun 12:40:12 PM 21.9083 -72.3167 307° West 201 231 10,500 950 Climbing Miami Center
Sun 12:41:12 PM 21.9411 -72.3692 304° West 211 243 11,400 900 Climbing Miami Center
Sun 12:42:12 PM 21.9739 -72.4217 304° West 211 243 12,300 850 Climbing Miami Center
Sun 12:43:12 PM 22.0089 -72.4764 305° West 206 237 13,100 800 Climbing Miami Center
Sun 12:44:12 PM 22.0417 -72.5269 305° West 206 237 13,900 750 Climbing Miami Center
Sun 12:45:12 PM 22.0725 -72.5819 301° West 206 237 14,600 650 Climbing Miami Center
Sun 12:46:12 PM 22.1075 -72.6367 305° West 206 237 15,200 700 Climbing Miami Center
Sun 12:47:12 PM 22.1403 -72.6894 304° West 206 237 16,000 650 Climbing Miami Center
Sun 12:48:12 PM 22.1731 -72.7422 304° West 206 237 16,500 500 Climbing Miami Center
Sun 12:49:12 PM 22.2078 -72.7950 305° West 206 237 17,000 500 Climbing Miami Center
Sun 12:50:12 PM 22.2425 -72.8500 304° West 211 243 17,500 450 Climbing Miami Center
Sun 12:51:12 PM 22.2731 -72.8983 304° West 211 243 17,900 450 Climbing Miami Center
Sun 12:52:12 PM 22.3058 -72.9558 302° West 217 250 18,400 500 Climbing Miami Center
Sun 12:53:12 PM 22.3428 -73.0131 305° West 228 262 18,900 450 Climbing Miami Center
Sun 12:54:12 PM 22.3778 -73.0681 305° West 233 268 19,300 500 Climbing Miami Center
Sun 12:55:12 PM 22.4106 -73.1256 302° West 233 268 19,900 600 Climbing Miami Center
Sun 12:56:12 PM 22.4453 -73.1806 304° West 233 268 20,500 500 Climbing Miami Center
Sun 12:57:12 PM 22.4800 -73.2381 303° West 228 262 20,900 400 Climbing Miami Center
Sun 12:58:12 PM 22.5128 -73.2978 301° West 228 262 21,300 350 Climbing Miami Center
Sun 12:59:12 PM 22.5536 -73.3486 311° West 228 262 21,600 350 Climbing Miami Center
Sun 01:00:12 PM 22.5842 -73.4083 299° West 228 262 22,000 200 Climbing Miami Center
Sun 01:01:12 PM 22.6189 -73.4658 303° West 228 262 22,000  Level Miami Center
Sun 01:02:12 PM 22.6558 -73.5281 303° West 233 268 22,000  Level Miami Center
Sun 01:03:12 PM 22.6925 -73.5833 306° West 239 275 22,000  Level Miami Center
Sun 01:04:12 PM 22.7314 -73.6475 303° West 244 281 22,000  Level Miami Center
Sun 01:05:12 PM 22.7683 -73.7142 301° West 250 288 22,000  Level Miami Center
Sun 01:06:12 PM 22.8094 -73.7808 304° West 255 293 22,000  Level Miami Center
Sun 01:07:12 PM 22.8464 -73.8453 302° West 261 300 22,000  Level Miami Center
Sun 01:08:12 PM 22.8936 -73.9119 308° West 261 300 22,000  Level Miami Center
Sun 01:09:12 PM 22.9367 -73.9764 306° West 261 300 22,000  Level Miami Center
Sun 01:10:12 PM 22.9733 -74.0408 302° West 256 295 22,000  Level Miami Center
Sun 01:11:12 PM 23.0122 -74.1078 302° West 256 295 22,000  Level Miami Center
Sun 01:12:12 PM 23.0508 -74.1722 303° West 256 295 22,000  Level Miami Center
Sun 01:13:12 PM 23.0917 -74.2392 304° West 256 295 22,000  Level Miami Center
Sun 01:14:12 PM 23.1325 -74.3017 305° West 256 295 22,000  Level Miami Center
Sun 01:15:12 PM 23.1692 -74.3686 301° West 256 295 22,000  Level Miami Center
Sun 01:16:12 PM 23.2122 -74.4356 305° West 261 300 22,000  Level Miami Center
Sun 01:17:12 PM 23.2486 -74.5006 301° West 261 300 22,000  Level Miami Center
Sun 01:18:12 PM 23.2894 -74.5675 304° West 261 300 22,000  Level Miami Center
Sun 01:19:12 PM 23.3300 -74.6303 305° West 261 300 22,000  Level Miami Center
Sun 01:20:12 PM 23.3686 -74.6975 302° West 261 300 22,000  Level Miami Center
Sun 01:21:12 PM 23.4050 -74.7669 300° West 261 300 22,000  Level Miami Center
Sun 01:22:12 PM 23.4417 -74.8344 301° West 261 300 22,000  Level Miami Center
Sun 01:23:12 PM 23.4758 -74.9039 298° West 261 300 22,000  Level Miami Center
Sun 01:24:12 PM 23.5122 -74.9714 300° West 261 300 22,000  Level Miami Center
Sun 01:25:12 PM 23.5486 -75.0389 300° West 261 300 22,000  Level Miami Center
Sun 01:26:12 PM 23.5828 -75.1064 299° West 261 300 22,000  Level Miami Center
Sun 01:27:12 PM 23.6192 -75.1739 300° West 261 300 22,000  Level Miami Center
Sun 01:28:12 PM 23.6556 -75.2414 300° West 261 300 22,000  Level Miami Center
Sun 01:29:12 PM 23.6917 -75.3092 300° West 261 300 22,000  Level Miami Center
Sun 01:30:12 PM 23.7364 -75.3719 308° West 261 300 22,000  Level Miami Center
Sun 01:31:12 PM 23.7767 -75.4375 304° West 261 300 22,000  Level Miami Center
Sun 01:32:12 PM 23.8189 -75.5028 305° West 261 300 22,000  Level Miami Center
Sun 01:33:12 PM 23.8594 -75.5706 303° West 261 300 22,000  Level Miami Center
Sun 01:34:12 PM 23.8994 -75.6361 304° West 261 300 22,000  Level Miami Center
Sun 01:35:12 PM 23.9397 -75.7017 304° West 261 300 22,000  Level Miami Center
Sun 01:36:12 PM 23.9800 -75.7694 303° West 261 300 22,000  Level Miami Center
Sun 01:37:12 PM 24.0203 -75.8350 304° West 261 300 22,000  Level Miami Center
Sun 01:38:24 PM 24.0603 -75.9008 304° West 261 300 22,000 -136 Level Miami Center
Sun 01:39:24 PM 24.1089 -75.9822 303° West 261 300 21,700 -400 Descending Miami Center
Sun 01:40:24 PM 24.1533 -76.0525 305° West 261 300 21,200 -500 Descending Miami Center
Sun 01:41:24 PM 24.1975 -76.1275 303° West 274 315 20,700 -550 Descending Miami Center
Sun 01:42:24 PM 24.2500 -76.1933 311° West 285 328 20,100 -650 Descending Miami Center
Sun 01:43:24 PM 24.3025 -76.2614 310° West 290 334 19,400 -750 Descending Miami Center
Sun 01:44:24 PM 24.3467 -76.3389 302° West 296 341 18,600 -850 Descending Miami Center
Sun 01:45:24 PM 24.3931 -76.4183 303° West 302 348 17,700 -1,000 Descending Miami Center
Sun 01:46:24 PM 24.4414 -76.5097 300° West 308 354 16,600 -1,050 Descending Miami Center
Sun 01:47:24 PM 24.4894 -76.5869 304° West 308 354 15,600 -1,000 Descending Miami Center
Sun 01:48:24 PM 24.5336 -76.6692 301° West 313 360 14,600 -1,100 Descending Miami Center
Sun 01:49:24 PM 24.5797 -76.7514 302° West 313 360 13,400 -1,300 Descending Miami Center
Sun 01:50:24 PM 24.6256 -76.8314 302° West 313 360 12,000 -1,400 Descending Miami Center
Sun 01:51:24 PM 24.6736 -76.9092 304° West 313 360 10,600 -1,350 Descending Miami Center
Sun 01:52:24 PM 24.7197 -76.9800 306° West 308 354 9,300 -1,250 Descending Miami Center
Sun 01:53:24 PM 24.7697 -77.0556 306° West 297 342 8,100 -1,200 Descending Miami Center
Sun 01:55:00 PM 24.8280 -77.1502 306° West  Level FlightAware Approximate

Login

Don't have an account? Register now (free) for customized features, flight alerts, and more!